»·PEaware :: N322DF KBOI-KRNO

N322DF :: KBOI-KRNO

FLIGHT INFORMATION

Flight Status: Arrived
Operator: Privately registered:
United States
More flights under this callsign
Pilot: Joe M. (31427)
Aircraft: PIPER PA-46-310/350P MALIBU MIRAGE
(PA46)
More flights by this aircraft type
Origin: KBOI Boise Air Terminal/Gowen
United States
Destination: KRNO Reno/Tahoe Intl
United States
More flights between these airports :: More routes between these airports
Route: HYVAL REO
File this flight plan on PilotEdge
Remarks:
Altitude:
(Current/Filed)
18,000ft
Speed:
(Current/Filed)
190kts
Departed: 12-Sep-20 06:40 PM
Arrived: 12-Sep-20 08:21 PM
Distance/Time
Traveled:
291nm/1:41
Distance/Time
To Go:
Arrived

Flight Plot

Page will automatically refresh every two minutes.

Flight plan parsing failed; only flown route is shown


Map Options




Map Legend


Flown Route
Filed Route
Departure Airport
Arrival Airport
Navaid (VOR, NDB)
Fix

Horizontal Profiles

Position Reports

Time Latitude Longitude Heading Altitude Ground
Speed
12-Sep-20 18:20 43.568865 -116.226973 359 2841ft 0kts
12-Sep-20 18:21 43.568865 -116.226973 359 2841ft 0kts
12-Sep-20 18:22 43.568865 -116.226973 359 2841ft 0kts
12-Sep-20 18:23 43.568865 -116.226973 359 2841ft 0kts
12-Sep-20 18:24 43.568865 -116.226973 359 2841ft 0kts
12-Sep-20 18:25 43.568865 -116.226973 359 2841ft 0kts
12-Sep-20 18:26 43.568865 -116.226973 359 2841ft 0kts
12-Sep-20 18:27 43.568865 -116.226973 359 2841ft 0kts
12-Sep-20 18:28 43.568865 -116.226973 359 2841ft 0kts
12-Sep-20 18:29 43.568865 -116.226973 359 2841ft 0kts
12-Sep-20 18:30 43.568865 -116.226973 359 2841ft 0kts
12-Sep-20 18:31 43.568865 -116.226973 359 2841ft 0kts
12-Sep-20 18:32 43.568865 -116.226973 359 2841ft 0kts
12-Sep-20 18:33 43.568865 -116.226973 359 2841ft 0kts
12-Sep-20 18:34 43.568452 -116.226324 187 2842ft 6kts
12-Sep-20 18:35 43.569618 -116.231637 295 2833ft 23kts
12-Sep-20 18:36 43.570927 -116.236212 235 2825ft 0kts
12-Sep-20 18:37 43.570928 -116.236212 235 2825ft 0kts
12-Sep-20 18:38 43.570927 -116.236212 235 2825ft 0kts
12-Sep-20 18:39 43.568589 -116.232262 115 2834ft 75kts
12-Sep-20 18:40 43.553374 -116.195176 113 3711ft 132kts
12-Sep-20 18:41 43.539391 -116.143939 109 5042ft 148kts
12-Sep-20 18:42 43.525890 -116.091553 109 6513ft 137kts
12-Sep-20 18:43 43.506755 -116.059585 194 7837ft 109kts
12-Sep-20 18:44 43.482359 -116.086080 230 8741ft 123kts
12-Sep-20 18:45 43.460472 -116.125912 244 9576ft 138kts
12-Sep-20 18:46 43.441414 -116.174151 243 10393ft 148kts
12-Sep-20 18:47 43.421414 -116.224210 243 11287ft 147kts
12-Sep-20 18:48 43.401991 -116.272646 244 12274ft 142kts
12-Sep-20 18:49 43.383076 -116.319711 244 13261ft 139kts
12-Sep-20 18:50 43.364545 -116.365766 244 14250ft 136kts
12-Sep-20 18:51 43.346381 -116.410831 244 15237ft 134kts
12-Sep-20 18:53 43.328452 -116.455276 245 16227ft 132kts
12-Sep-20 18:54 43.310844 -116.498817 245 17212ft 129kts
12-Sep-20 18:55 43.293504 -116.541712 245 18046ft 138kts
12-Sep-20 18:56 43.271549 -116.596308 244 18052ft 182kts
12-Sep-20 18:57 43.245555 -116.660203 243 18049ft 198kts
12-Sep-20 18:58 43.218166 -116.727440 243 18047ft 204kts
12-Sep-20 18:59 43.190307 -116.795704 243 18047ft 206kts
12-Sep-20 19:00 43.162198 -116.864435 243 18046ft 206kts
12-Sep-20 19:01 43.133374 -116.932363 235 18048ft 208kts
12-Sep-20 19:02 43.098012 -116.994872 234 18046ft 207kts
12-Sep-20 19:03 43.062624 -117.056603 234 18045ft 206kts
12-Sep-20 19:04 43.027333 -117.117983 233 18046ft 205kts
12-Sep-20 19:05 42.992069 -117.179142 233 18060ft 205kts
12-Sep-20 19:06 42.956492 -117.240717 233 18071ft 207kts
12-Sep-20 19:07 42.920658 -117.302654 233 18078ft 209kts
12-Sep-20 19:08 42.884527 -117.364956 232 18081ft 210kts
12-Sep-20 19:09 42.848064 -117.427669 232 18081ft 211kts
12-Sep-20 19:10 42.811447 -117.490533 232 18081ft 212kts
12-Sep-20 19:10 42.780953 -117.542788 232 18081ft 212kts
12-Sep-20 19:12 42.738113 -117.616047 232 18081ft 212kts
12-Sep-20 19:12 42.707403 -117.668445 232 18082ft 212kts
12-Sep-20 19:13 42.670545 -117.731226 232 18082ft 213kts
12-Sep-20 19:15 42.627551 -117.804282 232 18082ft 213kts
12-Sep-20 19:15 42.596734 -117.856541 232 18082ft 213kts
12-Sep-20 19:16 42.545098 -117.896483 207 18082ft 215kts
12-Sep-20 19:18 42.482248 -117.937299 207 18082ft 215kts
12-Sep-20 19:18 42.437315 -117.966278 207 18082ft 215kts
12-Sep-20 19:19 42.383148 -118.001142 207 18082ft 215kts
12-Sep-20 19:20 42.329164 -118.035821 207 18082ft 215kts
12-Sep-20 19:21 42.275077 -118.070499 207 18082ft 215kts
12-Sep-20 19:22 42.220950 -118.105137 207 18082ft 215kts
12-Sep-20 19:23 42.166975 -118.139612 207 18082ft 215kts
12-Sep-20 19:24 42.112869 -118.174105 207 18081ft 215kts
12-Sep-20 19:25 42.058718 -118.208562 207 18081ft 215kts
12-Sep-20 19:26 42.004634 -118.242910 207 18081ft 215kts
12-Sep-20 19:27 41.950511 -118.277219 207 18081ft 215kts
12-Sep-20 19:28 41.896542 -118.311366 207 18081ft 215kts
12-Sep-20 19:29 41.841896 -118.345939 206 18082ft 219kts
12-Sep-20 19:30 41.786514 -118.380783 206 18082ft 222kts
12-Sep-20 19:31 41.730447 -118.416048 206 18085ft 222kts
12-Sep-20 19:32 41.674486 -118.451183 206 18095ft 223kts
12-Sep-20 19:33 41.618434 -118.486310 206 18104ft 223kts
12-Sep-20 19:34 41.562355 -118.521385 206 18109ft 223kts
12-Sep-20 19:35 41.506133 -118.556482 206 18109ft 223kts
12-Sep-20 19:36 41.449870 -118.591535 206 18109ft 223kts
12-Sep-20 20:01 40.086251 -119.421179 204 18153ft 193kts
12-Sep-20 20:02 40.038415 -119.449564 204 18172ft 186kts
12-Sep-20 20:03 39.992125 -119.473823 194 17777ft 181kts
12-Sep-20 20:04 39.940072 -119.491010 194 16335ft 203kts
12-Sep-20 20:05 39.884344 -119.509606 194 14846ft 210kts
12-Sep-20 20:06 39.828135 -119.526766 192 13340ft 201kts
12-Sep-20 20:07 39.775163 -119.542063 192 11827ft 191kts
12-Sep-20 20:08 39.724106 -119.557066 192 10321ft 187kts
12-Sep-20 20:09 39.675845 -119.571784 192 9610ft 169kts
12-Sep-20 20:10 39.631340 -119.585495 192 9017ft 159kts
12-Sep-20 20:11 39.584015 -119.600164 192 9000ft 192kts
12-Sep-20 20:12 39.530267 -119.616548 192 8986ft 201kts
12-Sep-20 20:13 39.475429 -119.633192 193 8986ft 203kts
12-Sep-20 20:14 39.465711 -119.690435 250 8945ft 154kts
12-Sep-20 20:15 39.433124 -119.711607 182 9000ft 157kts
12-Sep-20 20:16 39.422724 -119.740611 313 8621ft 117kts
12-Sep-20 20:17 39.445633 -119.765753 335 6682ft 106kts
12-Sep-20 20:18 39.472485 -119.767479 7 5056ft 92kts
12-Sep-20 20:19 39.496256 -119.766651 0 4419ft 61kts
12-Sep-20 20:20 39.502875 -119.766008 93 4419ft 4kts
12-Sep-20 20:21 39.504527 -119.765142 69 4419ft 7kts

Navigation Log

Ident Type
Flight plan parsing failed, navigation log unavailable